sensor_id;sensor_type;location;lat;lon;timestamp;temperature;humidity
73133;DHT22;61320;52.008;4.530;2023-05-07T00:01:39;16.94;78.18
73133;DHT22;61320;52.008;4.530;2023-05-07T00:04:05;16.90;78.39
73133;DHT22;61320;52.008;4.530;2023-05-07T00:06:31;16.90;78.37
73133;DHT22;61320;52.008;4.530;2023-05-07T00:08:57;16.84;78.30
73133;DHT22;61320;52.008;4.530;2023-05-07T00:11:23;16.85;78.39
73133;DHT22;61320;52.008;4.530;2023-05-07T00:13:48;16.87;78.25
73133;DHT22;61320;52.008;4.530;2023-05-07T00:16:14;16.84;78.46
73133;DHT22;61320;52.008;4.530;2023-05-07T00:18:39;16.85;78.38
73133;DHT22;61320;52.008;4.530;2023-05-07T00:21:05;16.84;78.42
73133;DHT22;61320;52.008;4.530;2023-05-07T00:23:30;16.81;78.39
73133;DHT22;61320;52.008;4.530;2023-05-07T00:25:56;16.80;78.16
73133;DHT22;61320;52.008;4.530;2023-05-07T00:28:22;16.79;78.48
73133;DHT22;61320;52.008;4.530;2023-05-07T00:30:47;16.76;78.50
73133;DHT22;61320;52.008;4.530;2023-05-07T00:33:13;16.77;78.10
73133;DHT22;61320;52.008;4.530;2023-05-07T00:35:38;16.76;78.35
73133;DHT22;61320;52.008;4.530;2023-05-07T00:38:04;16.73;78.35
73133;DHT22;61320;52.008;4.530;2023-05-07T00:40:29;16.69;78.34
73133;DHT22;61320;52.008;4.530;2023-05-07T00:42:55;16.70;78.47
73133;DHT22;61320;52.008;4.530;2023-05-07T00:45:26;16.67;78.49
73133;DHT22;61320;52.008;4.530;2023-05-07T00:47:54;16.67;78.73
73133;DHT22;61320;52.008;4.530;2023-05-07T00:50:20;16.64;78.54
73133;DHT22;61320;52.008;4.530;2023-05-07T00:52:46;16.66;78.38
73133;DHT22;61320;52.008;4.530;2023-05-07T00:55:12;16.66;78.34
73133;DHT22;61320;52.008;4.530;2023-05-07T00:57:41;16.63;78.45
73133;DHT22;61320;52.008;4.530;2023-05-07T01:00:08;16.66;78.27
73133;DHT22;61320;52.008;4.530;2023-05-07T01:02:35;16.66;78.39
73133;DHT22;61320;52.008;4.530;2023-05-07T01:05:02;16.66;78.39
73133;DHT22;61320;52.008;4.530;2023-05-07T01:07:29;16.63;78.27
73133;DHT22;61320;52.008;4.530;2023-05-07T01:09:56;16.66;78.30
73133;DHT22;61320;52.008;4.530;2023-05-07T01:12:24;16.63;78.21
73133;DHT22;61320;52.008;4.530;2023-05-07T01:14:50;16.64;78.26
73133;DHT22;61320;52.008;4.530;2023-05-07T01:17:16;16.63;78.28
73133;DHT22;61320;52.008;4.530;2023-05-07T01:19:42;16.60;78.06
73133;DHT22;61320;52.008;4.530;2023-05-07T01:22:09;16.59;78.10
73133;DHT22;61320;52.008;4.530;2023-05-07T01:24:36;16.59;78.36
73133;DHT22;61320;52.008;4.530;2023-05-07T01:27:02;16.57;78.14
73133;DHT22;61320;52.008;4.530;2023-05-07T01:29:28;16.55;77.96
73133;DHT22;61320;52.008;4.530;2023-05-07T01:31:56;16.53;78.18
73133;DHT22;61320;52.008;4.530;2023-05-07T01:34:26;16.53;78.20
73133;DHT22;61320;52.008;4.530;2023-05-07T01:36:54;16.51;78.12
73133;DHT22;61320;52.008;4.530;2023-05-07T01:39:24;16.49;78.04
73133;DHT22;61320;52.008;4.530;2023-05-07T01:41:50;16.45;78.34
73133;DHT22;61320;52.008;4.530;2023-05-07T01:44:16;16.45;78.31
73133;DHT22;61320;52.008;4.530;2023-05-07T01:46:43;16.45;78.30
73133;DHT22;61320;52.008;4.530;2023-05-07T01:49:10;16.43;78.40
73133;DHT22;61320;52.008;4.530;2023-05-07T01:51:36;16.46;78.42
73133;DHT22;61320;52.008;4.530;2023-05-07T01:54:01;16.45;78.34
73133;DHT22;61320;52.008;4.530;2023-05-07T01:56:27;16.43;78.48
73133;DHT22;61320;52.008;4.530;2023-05-07T01:58:52;16.45;78.50
73133;DHT22;61320;52.008;4.530;2023-05-07T02:01:18;16.45;78.59
73133;DHT22;61320;52.008;4.530;2023-05-07T02:03:43;16.48;78.55
73133;DHT22;61320;52.008;4.530;2023-05-07T02:06:09;16.46;78.70
73133;DHT22;61320;52.008;4.530;2023-05-07T02:08:34;16.48;78.67
73133;DHT22;61320;52.008;4.530;2023-05-07T02:11:01;16.52;78.68
73133;DHT22;61320;52.008;4.530;2023-05-07T02:13:31;16.51;78.58
73133;DHT22;61320;52.008;4.530;2023-05-07T02:15:57;16.49;78.72
73133;DHT22;61320;52.008;4.530;2023-05-07T02:18:23;16.53;78.69
73133;DHT22;61320;52.008;4.530;2023-05-07T02:20:48;16.53;78.84
73133;DHT22;61320;52.008;4.530;2023-05-07T02:23:14;16.56;78.70
73133;DHT22;61320;52.008;4.530;2023-05-07T02:25:39;16.52;78.64
73133;DHT22;61320;52.008;4.530;2023-05-07T02:28:05;16.56;78.59
73133;DHT22;61320;52.008;4.530;2023-05-07T02:30:31;16.55;78.69
73133;DHT22;61320;52.008;4.530;2023-05-07T02:32:57;16.56;78.40
73133;DHT22;61320;52.008;4.530;2023-05-07T02:35:24;16.56;78.83
73133;DHT22;61320;52.008;4.530;2023-05-07T02:37:50;16.59;78.75
73133;DHT22;61320;52.008;4.530;2023-05-07T02:40:15;16.59;78.72
73133;DHT22;61320;52.008;4.530;2023-05-07T02:42:40;16.59;78.93
73133;DHT22;61320;52.008;4.530;2023-05-07T02:45:06;16.60;78.65
73133;DHT22;61320;52.008;4.530;2023-05-07T02:47:32;16.59;78.70
73133;DHT22;61320;52.008;4.530;2023-05-07T02:49:57;16.57;78.91
73133;DHT22;61320;52.008;4.530;2023-05-07T02:52:23;16.59;78.84
73133;DHT22;61320;52.008;4.530;2023-05-07T02:54:48;16.63;78.90
73133;DHT22;61320;52.008;4.530;2023-05-07T02:57:14;16.63;78.74
73133;DHT22;61320;52.008;4.530;2023-05-07T02:59:40;16.64;78.72
73133;DHT22;61320;52.008;4.530;2023-05-07T03:02:05;16.64;78.72
73133;DHT22;61320;52.008;4.530;2023-05-07T03:04:31;16.69;78.57
73133;DHT22;61320;52.008;4.530;2023-05-07T03:06:56;16.69;78.78
73133;DHT22;61320;52.008;4.530;2023-05-07T03:09:21;16.69;78.75
73133;DHT22;61320;52.008;4.530;2023-05-07T03:11:47;16.69;78.83
73133;DHT22;61320;52.008;4.530;2023-05-07T03:14:12;16.70;78.82
73133;DHT22;61320;52.008;4.530;2023-05-07T03:16:39;16.76;78.76
73133;DHT22;61320;52.008;4.530;2023-05-07T03:19:04;16.74;78.69
73133;DHT22;61320;52.008;4.530;2023-05-07T03:21:30;16.73;78.64
73133;DHT22;61320;52.008;4.530;2023-05-07T03:23:55;16.74;78.59
73133;DHT22;61320;52.008;4.530;2023-05-07T03:26:21;16.79;78.33
73133;DHT22;61320;52.008;4.530;2023-05-07T03:28:47;16.74;78.42
73133;DHT22;61320;52.008;4.530;2023-05-07T03:31:12;16.73;78.54
73133;DHT22;61320;52.008;4.530;2023-05-07T03:33:52;16.76;78.68
73133;DHT22;61320;52.008;4.530;2023-05-07T03:36:18;16.77;78.61
73133;DHT22;61320;52.008;4.530;2023-05-07T03:38:44;16.74;78.48
73133;DHT22;61320;52.008;4.530;2023-05-07T03:41:09;16.77;78.45
73133;DHT22;61320;52.008;4.530;2023-05-07T03:43:35;16.77;78.56
73133;DHT22;61320;52.008;4.530;2023-05-07T03:46:00;16.76;78.55
73133;DHT22;61320;52.008;4.530;2023-05-07T03:48:26;16.79;78.54
73133;DHT22;61320;52.008;4.530;2023-05-07T03:50:51;16.77;78.63
73133;DHT22;61320;52.008;4.530;2023-05-07T03:53:17;16.76;78.62
73133;DHT22;61320;52.008;4.530;2023-05-07T03:55:42;16.77;78.47
73133;DHT22;61320;52.008;4.530;2023-05-07T03:58:08;16.79;78.56
73133;DHT22;61320;52.008;4.530;2023-05-07T04:00:33;16.79;78.57
73133;DHT22;61320;52.008;4.530;2023-05-07T04:03:03;16.77;78.56
73133;DHT22;61320;52.008;4.530;2023-05-07T04:05:30;16.77;78.53
73133;DHT22;61320;52.008;4.530;2023-05-07T04:07:55;16.79;78.46
73133;DHT22;61320;52.008;4.530;2023-05-07T04:10:21;16.74;78.51
73133;DHT22;61320;52.008;4.530;2023-05-07T04:12:46;16.72;78.32
73133;DHT22;61320;52.008;4.530;2023-05-07T04:15:12;16.73;78.45
73133;DHT22;61320;52.008;4.530;2023-05-07T04:17:37;16.77;78.67
73133;DHT22;61320;52.008;4.530;2023-05-07T04:20:03;16.80;78.50
73133;DHT22;61320;52.008;4.530;2023-05-07T04:22:29;16.79;78.51
73133;DHT22;61320;52.008;4.530;2023-05-07T04:24:54;16.79;78.14
73133;DHT22;61320;52.008;4.530;2023-05-07T04:27:20;16.76;78.43
73133;DHT22;61320;52.008;4.530;2023-05-07T04:29:45;16.80;78.55
73133;DHT22;61320;52.008;4.530;2023-05-07T04:32:13;16.81;78.53
73133;DHT22;61320;52.008;4.530;2023-05-07T04:34:38;16.83;78.50
73133;DHT22;61320;52.008;4.530;2023-05-07T04:37:04;16.84;78.56
73133;DHT22;61320;52.008;4.530;2023-05-07T04:39:29;16.84;78.74
73133;DHT22;61320;52.008;4.530;2023-05-07T04:41:54;16.84;78.70
73133;DHT22;61320;52.008;4.530;2023-05-07T04:44:20;16.87;78.61
73133;DHT22;61320;52.008;4.530;2023-05-07T04:46:46;16.88;78.77
73133;DHT22;61320;52.008;4.530;2023-05-07T04:49:11;16.93;78.56
73133;DHT22;61320;52.008;4.530;2023-05-07T04:51:37;16.94;78.64
73133;DHT22;61320;52.008;4.530;2023-05-07T04:54:03;16.95;78.54
73133;DHT22;61320;52.008;4.530;2023-05-07T04:56:29;16.97;78.31
73133;DHT22;61320;52.008;4.530;2023-05-07T04:58:55;16.97;78.28
73133;DHT22;61320;52.008;4.530;2023-05-07T05:01:21;16.94;78.27
73133;DHT22;61320;52.008;4.530;2023-05-07T05:03:46;16.94;78.41
73133;DHT22;61320;52.008;4.530;2023-05-07T05:06:11;16.94;78.23
73133;DHT22;61320;52.008;4.530;2023-05-07T05:08:37;16.94;78.48
73133;DHT22;61320;52.008;4.530;2023-05-07T05:11:03;16.97;78.62
73133;DHT22;61320;52.008;4.530;2023-05-07T05:13:29;17.03;78.08
73133;DHT22;61320;52.008;4.530;2023-05-07T05:15:55;17.00;78.28
73133;DHT22;61320;52.008;4.530;2023-05-07T05:18:21;17.01;78.46
73133;DHT22;61320;52.008;4.530;2023-05-07T05:20:46;17.07;78.47
73133;DHT22;61320;52.008;4.530;2023-05-07T05:23:12;17.10;78.23
73133;DHT22;61320;52.008;4.530;2023-05-07T05:25:37;17.17;78.39
73133;DHT22;61320;52.008;4.530;2023-05-07T05:28:04;17.15;78.02
73133;DHT22;61320;52.008;4.530;2023-05-07T05:30:29;17.18;77.99
73133;DHT22;61320;52.008;4.530;2023-05-07T05:32:55;17.17;78.12
73133;DHT22;61320;52.008;4.530;2023-05-07T05:35:20;17.18;78.15
73133;DHT22;61320;52.008;4.530;2023-05-07T05:37:46;17.21;78.52
73133;DHT22;61320;52.008;4.530;2023-05-07T05:40:12;17.24;78.36
73133;DHT22;61320;52.008;4.530;2023-05-07T05:42:38;17.22;78.83
73133;DHT22;61320;52.008;4.530;2023-05-07T05:45:04;17.32;78.29
73133;DHT22;61320;52.008;4.530;2023-05-07T05:47:29;17.36;78.34
73133;DHT22;61320;52.008;4.530;2023-05-07T05:49:55;17.41;78.44
73133;DHT22;61320;52.008;4.530;2023-05-07T05:52:21;17.46;78.37
73133;DHT22;61320;52.008;4.530;2023-05-07T05:54:49;17.51;78.30
73133;DHT22;61320;52.008;4.530;2023-05-07T05:57:15;17.55;78.18
73133;DHT22;61320;52.008;4.530;2023-05-07T05:59:40;17.52;77.49
73133;DHT22;61320;52.008;4.530;2023-05-07T06:02:06;17.52;77.63
73133;DHT22;61320;52.008;4.530;2023-05-07T06:04:32;17.56;78.00
73133;DHT22;61320;52.008;4.530;2023-05-07T06:06:57;17.56;78.06
73133;DHT22;61320;52.008;4.530;2023-05-07T06:09:23;17.58;77.90
73133;DHT22;61320;52.008;4.530;2023-05-07T06:11:48;17.61;77.97
73133;DHT22;61320;52.008;4.530;2023-05-07T06:14:14;17.61;77.95
73133;DHT22;61320;52.008;4.530;2023-05-07T06:16:39;17.59;77.57
73133;DHT22;61320;52.008;4.530;2023-05-07T06:19:05;17.61;77.64
73133;DHT22;61320;52.008;4.530;2023-05-07T06:21:30;17.61;77.87
73133;DHT22;61320;52.008;4.530;2023-05-07T06:23:56;17.59;77.70
73133;DHT22;61320;52.008;4.530;2023-05-07T06:26:21;17.61;77.45
73133;DHT22;61320;52.008;4.530;2023-05-07T06:28:47;17.61;77.82
73133;DHT22;61320;52.008;4.530;2023-05-07T06:31:14;17.58;77.27
73133;DHT22;61320;52.008;4.530;2023-05-07T06:33:40;17.59;77.95
73133;DHT22;61320;52.008;4.530;2023-05-07T06:36:06;17.66;77.78
73133;DHT22;61320;52.008;4.530;2023-05-07T06:38:31;17.68;77.69
73133;DHT22;61320;52.008;4.530;2023-05-07T06:40:57;17.75;77.90
73133;DHT22;61320;52.008;4.530;2023-05-07T06:43:22;17.92;78.07
73133;DHT22;61320;52.008;4.530;2023-05-07T06:45:48;18.03;77.95
73133;DHT22;61320;52.008;4.530;2023-05-07T06:48:13;17.97;76.73
73133;DHT22;61320;52.008;4.530;2023-05-07T06:50:39;18.01;76.80
73133;DHT22;61320;52.008;4.530;2023-05-07T06:53:05;18.03;77.33
73133;DHT22;61320;52.008;4.530;2023-05-07T06:55:30;18.13;77.73
73133;DHT22;61320;52.008;4.530;2023-05-07T06:57:56;18.17;77.49
73133;DHT22;61320;52.008;4.530;2023-05-07T07:00:23;18.31;77.49
73133;DHT22;61320;52.008;4.530;2023-05-07T07:02:48;18.37;76.54
73133;DHT22;61320;52.008;4.530;2023-05-07T07:05:14;18.44;76.77
73133;DHT22;61320;52.008;4.530;2023-05-07T07:07:39;18.41;76.40
73133;DHT22;61320;52.008;4.530;2023-05-07T07:10:05;18.40;76.76
73133;DHT22;61320;52.008;4.530;2023-05-07T07:12:31;18.45;75.96
73133;DHT22;61320;52.008;4.530;2023-05-07T07:14:56;18.36;75.93
73133;DHT22;61320;52.008;4.530;2023-05-07T07:17:22;18.40;75.99
73133;DHT22;61320;52.008;4.530;2023-05-07T07:19:47;18.40;75.91
73133;DHT22;61320;52.008;4.530;2023-05-07T07:22:12;18.43;76.73
73133;DHT22;61320;52.008;4.530;2023-05-07T07:24:38;18.41;76.65
73133;DHT22;61320;52.008;4.530;2023-05-07T07:27:03;18.50;76.75
73133;DHT22;61320;52.008;4.530;2023-05-07T07:29:29;18.45;76.12
73133;DHT22;61320;52.008;4.530;2023-05-07T07:31:54;18.55;76.74
73133;DHT22;61320;52.008;4.530;2023-05-07T07:34:20;18.69;76.78
73133;DHT22;61320;52.008;4.530;2023-05-07T07:36:45;18.78;76.06
73133;DHT22;61320;52.008;4.530;2023-05-07T07:39:11;18.84;75.27
73133;DHT22;61320;52.008;4.530;2023-05-07T07:41:36;18.91;75.92
73133;DHT22;61320;52.008;4.530;2023-05-07T07:44:03;19.08;75.58
73133;DHT22;61320;52.008;4.530;2023-05-07T07:46:29;19.13;74.97
73133;DHT22;61320;52.008;4.530;2023-05-07T07:48:54;19.20;74.99
73133;DHT22;61320;52.008;4.530;2023-05-07T07:51:20;19.26;74.00
73133;DHT22;61320;52.008;4.530;2023-05-07T07:53:45;19.33;74.26
73133;DHT22;61320;52.008;4.530;2023-05-07T07:56:11;19.29;72.87
73133;DHT22;61320;52.008;4.530;2023-05-07T07:58:37;19.41;74.21
73133;DHT22;61320;52.008;4.530;2023-05-07T08:01:03;19.49;73.87
73133;DHT22;61320;52.008;4.530;2023-05-07T08:03:28;19.51;73.23
73133;DHT22;61320;52.008;4.530;2023-05-07T08:05:57;19.46;72.84
73133;DHT22;61320;52.008;4.530;2023-05-07T08:08:22;19.58;74.17
73133;DHT22;61320;52.008;4.530;2023-05-07T08:10:47;19.67;73.95
73133;DHT22;61320;52.008;4.530;2023-05-07T08:13:15;19.85;74.25
73133;DHT22;61320;52.008;4.530;2023-05-07T08:15:40;19.95;73.09
73133;DHT22;61320;52.008;4.530;2023-05-07T08:18:06;19.97;73.25
73133;DHT22;61320;52.008;4.530;2023-05-07T08:20:31;20.06;73.13
73133;DHT22;61320;52.008;4.530;2023-05-07T08:22:57;20.04;71.80
73133;DHT22;61320;52.008;4.530;2023-05-07T08:25:22;20.09;71.93
73133;DHT22;61320;52.008;4.530;2023-05-07T08:27:48;20.14;72.53
73133;DHT22;61320;52.008;4.530;2023-05-07T08:30:14;20.19;73.07
73133;DHT22;61320;52.008;4.530;2023-05-07T08:32:39;20.26;71.32
73133;DHT22;61320;52.008;4.530;2023-05-07T08:35:05;20.33;72.18
73133;DHT22;61320;52.008;4.530;2023-05-07T08:37:30;20.33;71.68
73133;DHT22;61320;52.008;4.530;2023-05-07T08:39:56;20.32;72.46
73133;DHT22;61320;52.008;4.530;2023-05-07T08:42:23;20.37;72.32
73133;DHT22;61320;52.008;4.530;2023-05-07T08:44:51;20.33;72.29
73133;DHT22;61320;52.008;4.530;2023-05-07T08:47:42;20.35;72.41
73133;DHT22;61320;52.008;4.530;2023-05-07T08:50:10;20.43;72.50
73133;DHT22;61320;52.008;4.530;2023-05-07T08:52:37;20.57;73.27
73133;DHT22;61320;52.008;4.530;2023-05-07T08:55:03;20.69;71.86
73133;DHT22;61320;52.008;4.530;2023-05-07T08:57:29;20.72;71.48
73133;DHT22;61320;52.008;4.530;2023-05-07T08:59:55;20.81;70.52
73133;DHT22;61320;52.008;4.530;2023-05-07T09:02:20;20.87;70.58
73133;DHT22;61320;52.008;4.530;2023-05-07T09:04:46;20.81;69.34
73133;DHT22;61320;52.008;4.530;2023-05-07T09:07:11;20.88;69.56
73133;DHT22;61320;52.008;4.530;2023-05-07T09:09:37;20.93;70.77
73133;DHT22;61320;52.008;4.530;2023-05-07T09:12:02;20.97;69.40
73133;DHT22;61320;52.008;4.530;2023-05-07T09:14:29;20.98;69.95
73133;DHT22;61320;52.008;4.530;2023-05-07T09:16:56;20.98;70.17
73133;DHT22;61320;52.008;4.530;2023-05-07T09:19:26;21.18;70.17
73133;DHT22;61320;52.008;4.530;2023-05-07T09:22:03;21.18;68.25
73133;DHT22;61320;52.008;4.530;2023-05-07T09:24:29;21.30;68.89
73133;DHT22;61320;52.008;4.530;2023-05-07T09:26:59;21.41;70.39
73133;DHT22;61320;52.008;4.530;2023-05-07T09:29:26;21.41;69.54
73133;DHT22;61320;52.008;4.530;2023-05-07T09:31:54;21.52;69.07
73133;DHT22;61320;52.008;4.530;2023-05-07T09:34:20;21.52;67.88
73133;DHT22;61320;52.008;4.530;2023-05-07T09:36:46;21.45;66.51
73133;DHT22;61320;52.008;4.530;2023-05-07T09:39:12;21.38;66.50
73133;DHT22;61320;52.008;4.530;2023-05-07T09:41:48;21.31;67.65
73133;DHT22;61320;52.008;4.530;2023-05-07T09:44:15;21.30;66.41
73133;DHT22;61320;52.008;4.530;2023-05-07T09:46:43;21.07;66.41
73133;DHT22;61320;52.008;4.530;2023-05-07T09:49:22;21.05;68.12
73133;DHT22;61320;52.008;4.530;2023-05-07T09:51:52;21.04;67.01
73133;DHT22;61320;52.008;4.530;2023-05-07T09:54:18;21.20;67.76
73133;DHT22;61320;52.008;4.530;2023-05-07T09:56:45;21.24;66.36
73133;DHT22;61320;52.008;4.530;2023-05-07T09:59:15;21.38;66.45
73133;DHT22;61320;52.008;4.530;2023-05-07T10:01:43;21.59;66.74
73133;DHT22;61320;52.008;4.530;2023-05-07T10:04:10;21.67;65.22
73133;DHT22;61320;52.008;4.530;2023-05-07T10:06:36;21.69;64.48
73133;DHT22;61320;52.008;4.530;2023-05-07T10:09:05;21.72;66.93
73133;DHT22;61320;52.008;4.530;2023-05-07T10:11:32;21.82;67.09
73133;DHT22;61320;52.008;4.530;2023-05-07T10:13:58;22.04;64.64
73133;DHT22;61320;52.008;4.530;2023-05-07T10:16:25;22.34;64.53
73133;DHT22;61320;52.008;4.530;2023-05-07T10:18:51;22.79;64.29
73133;DHT22;61320;52.008;4.530;2023-05-07T10:21:19;23.09;63.97
73133;DHT22;61320;52.008;4.530;2023-05-07T10:23:50;23.45;59.74
73133;DHT22;61320;52.008;4.530;2023-05-07T10:26:18;23.95;59.10
73133;DHT22;61320;52.008;4.530;2023-05-07T10:28:51;24.22;61.57
73133;DHT22;61320;52.008;4.530;2023-05-07T10:34:00;24.24;58.97
73133;DHT22;61320;52.008;4.530;2023-05-07T10:36:27;24.08;59.07
73133;DHT22;61320;52.008;4.530;2023-05-07T10:38:53;24.00;58.93
73133;DHT22;61320;52.008;4.530;2023-05-07T10:41:20;23.88;58.81
73133;DHT22;61320;52.008;4.530;2023-05-07T10:43:46;23.60;59.12
73133;DHT22;61320;52.008;4.530;2023-05-07T10:46:20;23.54;59.17
73133;DHT22;61320;52.008;4.530;2023-05-07T10:51:29;23.22;59.71
73133;DHT22;61320;52.008;4.530;2023-05-07T10:56:41;23.18;59.43
73133;DHT22;61320;52.008;4.530;2023-05-07T11:01:52;23.00;58.86
73133;DHT22;61320;52.008;4.530;2023-05-07T11:04:18;22.91;59.82
73133;DHT22;61320;52.008;4.530;2023-05-07T11:15:06;22.78;62.11
73133;DHT22;61320;52.008;4.530;2023-05-07T11:17:33;22.87;61.28
73133;DHT22;61320;52.008;4.530;2023-05-07T11:20:01;22.84;61.92
73133;DHT22;61320;52.008;4.530;2023-05-07T11:24:57;22.84;62.48
73133;DHT22;61320;52.008;4.530;2023-05-07T11:27:25;22.88;62.56
73133;DHT22;61320;52.008;4.530;2023-05-07T11:29:51;22.69;61.73
73133;DHT22;61320;52.008;4.530;2023-05-07T11:32:31;22.71;62.60
73133;DHT22;61320;52.008;4.530;2023-05-07T11:35:00;22.71;62.96
73133;DHT22;61320;52.008;4.530;2023-05-07T11:37:27;22.62;61.02
73133;DHT22;61320;52.008;4.530;2023-05-07T11:40:08;22.55;59.98
73133;DHT22;61320;52.008;4.530;2023-05-07T11:42:37;22.41;62.90
73133;DHT22;61320;52.008;4.530;2023-05-07T11:45:03;22.20;59.54
73133;DHT22;61320;52.008;4.530;2023-05-07T11:47:30;22.23;63.08
73133;DHT22;61320;52.008;4.530;2023-05-07T11:49:56;22.23;59.49
73133;DHT22;61320;52.008;4.530;2023-05-07T11:52:24;22.16;63.13
73133;DHT22;61320;52.008;4.530;2023-05-07T11:57:15;22.09;63.09
73133;DHT22;61320;52.008;4.530;2023-05-07T11:59:41;21.99;64.06
73133;DHT22;61320;52.008;4.530;2023-05-07T12:02:07;21.93;65.68
73133;DHT22;61320;52.008;4.530;2023-05-07T12:04:33;21.86;65.85
73133;DHT22;61320;52.008;4.530;2023-05-07T12:06:58;21.85;64.99
73133;DHT22;61320;52.008;4.530;2023-05-07T12:09:24;21.89;65.33
73133;DHT22;61320;52.008;4.530;2023-05-07T12:11:51;21.85;63.35
73133;DHT22;61320;52.008;4.530;2023-05-07T12:14:17;21.94;64.09
73133;DHT22;61320;52.008;4.530;2023-05-07T12:16:44;22.17;64.87
73133;DHT22;61320;52.008;4.530;2023-05-07T12:19:11;22.33;63.38
73133;DHT22;61320;52.008;4.530;2023-05-07T12:21:38;22.51;62.82
73133;DHT22;61320;52.008;4.530;2023-05-07T12:24:04;22.60;62.81
73133;DHT22;61320;52.008;4.530;2023-05-07T12:26:30;22.72;63.13
73133;DHT22;61320;52.008;4.530;2023-05-07T12:28:57;23.10;62.69
73133;DHT22;61320;52.008;4.530;2023-05-07T12:31:26;23.36;57.94
73133;DHT22;61320;52.008;4.530;2023-05-07T12:33:51;23.43;61.36
73133;DHT22;61320;52.008;4.530;2023-05-07T12:36:17;23.60;61.26
73133;DHT22;61320;52.008;4.530;2023-05-07T12:38:43;23.67;61.24
73133;DHT22;61320;52.008;4.530;2023-05-07T12:41:10;23.81;61.16
73133;DHT22;61320;52.008;4.530;2023-05-07T12:43:36;23.81;60.83
73133;DHT22;61320;52.008;4.530;2023-05-07T12:46:06;23.70;57.47
73133;DHT22;61320;52.008;4.530;2023-05-07T12:48:32;23.60;58.24
73133;DHT22;61320;52.008;4.530;2023-05-07T12:51:01;23.50;58.18
73133;DHT22;61320;52.008;4.530;2023-05-07T12:53:28;23.29;59.64
73133;DHT22;61320;52.008;4.530;2023-05-07T12:55:56;23.13;61.41
73133;DHT22;61320;52.008;4.530;2023-05-07T12:58:44;23.02;61.88
73133;DHT22;61320;52.008;4.530;2023-05-07T13:01:09;22.87;61.10
73133;DHT22;61320;52.008;4.530;2023-05-07T13:03:37;22.73;63.88
73133;DHT22;61320;52.008;4.530;2023-05-07T13:06:06;22.60;64.03
73133;DHT22;61320;52.008;4.530;2023-05-07T13:08:34;22.47;64.44
73133;DHT22;61320;52.008;4.530;2023-05-07T13:11:01;22.33;65.36
73133;DHT22;61320;52.008;4.530;2023-05-07T13:13:34;22.23;66.12
73133;DHT22;61320;52.008;4.530;2023-05-07T13:16:01;22.07;66.17
73133;DHT22;61320;52.008;4.530;2023-05-07T13:18:28;21.96;66.40
73133;DHT22;61320;52.008;4.530;2023-05-07T13:20:54;21.85;66.19
73133;DHT22;61320;52.008;4.530;2023-05-07T13:23:20;21.75;67.19
73133;DHT22;61320;52.008;4.530;2023-05-07T13:25:45;21.62;66.65
73133;DHT22;61320;52.008;4.530;2023-05-07T13:28:11;21.53;66.60
73133;DHT22;61320;52.008;4.530;2023-05-07T13:30:37;21.41;67.11
73133;DHT22;61320;52.008;4.530;2023-05-07T13:33:02;21.31;68.42
73133;DHT22;61320;52.008;4.530;2023-05-07T13:35:28;21.27;69.21
73133;DHT22;61320;52.008;4.530;2023-05-07T13:37:53;21.25;68.83
73133;DHT22;61320;52.008;4.530;2023-05-07T13:40:20;21.15;69.71
73133;DHT22;61320;52.008;4.530;2023-05-07T13:42:47;21.07;70.58
73133;DHT22;61320;52.008;4.530;2023-05-07T13:45:13;21.00;71.59
73133;DHT22;61320;52.008;4.530;2023-05-07T13:47:40;21.01;72.15
73133;DHT22;61320;52.008;4.530;2023-05-07T13:50:07;20.95;72.68
73133;DHT22;61320;52.008;4.530;2023-05-07T13:52:33;20.91;73.51
73133;DHT22;61320;52.008;4.530;2023-05-07T13:54:58;20.85;73.81
73133;DHT22;61320;52.008;4.530;2023-05-07T13:57:24;20.85;73.43
73133;DHT22;61320;52.008;4.530;2023-05-07T13:59:50;20.84;74.30
73133;DHT22;61320;52.008;4.530;2023-05-07T14:02:15;20.79;74.62
73133;DHT22;61320;52.008;4.530;2023-05-07T14:04:40;20.80;74.36
73133;DHT22;61320;52.008;4.530;2023-05-07T14:07:06;20.70;74.41
73133;DHT22;61320;52.008;4.530;2023-05-07T14:09:32;20.63;73.85
73133;DHT22;61320;52.008;4.530;2023-05-07T14:11:58;20.56;73.46
73133;DHT22;61320;52.008;4.530;2023-05-07T14:14:24;20.46;74.22
73133;DHT22;61320;52.008;4.530;2023-05-07T14:16:49;20.46;74.87
73133;DHT22;61320;52.008;4.530;2023-05-07T14:19:15;20.46;74.66
73133;DHT22;61320;52.008;4.530;2023-05-07T14:21:41;20.42;74.79
73133;DHT22;61320;52.008;4.530;2023-05-07T14:24:07;20.46;74.47
73133;DHT22;61320;52.008;4.530;2023-05-07T14:26:34;20.43;75.08
73133;DHT22;61320;52.008;4.530;2023-05-07T14:29:00;20.42;74.80
73133;DHT22;61320;52.008;4.530;2023-05-07T14:31:26;20.40;74.11
73133;DHT22;61320;52.008;4.530;2023-05-07T14:33:51;20.46;74.59
73133;DHT22;61320;52.008;4.530;2023-05-07T14:36:18;20.45;74.08
73133;DHT22;61320;52.008;4.530;2023-05-07T14:38:45;20.45;74.81
73133;DHT22;61320;52.008;4.530;2023-05-07T14:41:11;20.50;75.39
73133;DHT22;61320;52.008;4.530;2023-05-07T14:43:36;20.56;74.76
73133;DHT22;61320;52.008;4.530;2023-05-07T14:46:02;20.53;75.09
73133;DHT22;61320;52.008;4.530;2023-05-07T14:48:27;20.57;75.43
73133;DHT22;61320;52.008;4.530;2023-05-07T14:50:53;20.57;75.32
73133;DHT22;61320;52.008;4.530;2023-05-07T14:53:18;20.59;75.56
73133;DHT22;61320;52.008;4.530;2023-05-07T14:55:43;20.57;75.65
73133;DHT22;61320;52.008;4.530;2023-05-07T14:58:10;20.52;74.61
73133;DHT22;61320;52.008;4.530;2023-05-07T15:00:36;20.53;75.17
73133;DHT22;61320;52.008;4.530;2023-05-07T15:03:06;20.49;76.21
73133;DHT22;61320;52.008;4.530;2023-05-07T15:05:32;20.36;77.80
73133;DHT22;61320;52.008;4.530;2023-05-07T15:07:58;20.25;77.83
73133;DHT22;61320;52.008;4.530;2023-05-07T15:10:24;20.15;78.49
73133;DHT22;61320;52.008;4.530;2023-05-07T15:12:50;20.02;79.00
73133;DHT22;61320;52.008;4.530;2023-05-07T15:15:15;19.95;79.05
73133;DHT22;61320;52.008;4.530;2023-05-07T15:17:41;19.89;80.20
73133;DHT22;61320;52.008;4.530;2023-05-07T15:20:07;19.85;80.27
73133;DHT22;61320;52.008;4.530;2023-05-07T15:22:33;19.81;80.37
73133;DHT22;61320;52.008;4.530;2023-05-07T15:25:01;19.78;80.63
73133;DHT22;61320;52.008;4.530;2023-05-07T15:27:26;19.68;80.27
73133;DHT22;61320;52.008;4.530;2023-05-07T15:29:52;19.70;80.92
73133;DHT22;61320;52.008;4.530;2023-05-07T15:32:17;19.66;80.92
73133;DHT22;61320;52.008;4.530;2023-05-07T15:34:43;19.67;81.20
73133;DHT22;61320;52.008;4.530;2023-05-07T15:37:09;19.61;81.31
73133;DHT22;61320;52.008;4.530;2023-05-07T15:39:35;19.64;81.13
73133;DHT22;61320;52.008;4.530;2023-05-07T15:42:00;19.56;81.47
73133;DHT22;61320;52.008;4.530;2023-05-07T15:44:26;19.56;81.63
73133;DHT22;61320;52.008;4.530;2023-05-07T15:46:54;19.56;81.36
73133;DHT22;61320;52.008;4.530;2023-05-07T15:49:19;19.47;81.17